Time;durP1;ratioP1;P1;durP2;ratioP2;P2;SDS_P1;SDS_P2;PMS_P1;PMS_P2;Temp;Humidity;BMP_temperature;BMP_pressure;BME280_temperature;BME280_humidity;BME280_pressure;Samples;Min_cycle;Max_cycle;Signal;HPM_P1;HPM_P2
2022/04/06 00:01:29;;;;;;;4.45;4.03;;;10.50;99.90;;;;;;5093730;28;20024;-65
2022/04/06 00:03:55;;;;;;;6.35;5.07;;;10.60;99.90;;;;;;5094139;28;20553;-63
2022/04/06 00:06:21;;;;;;;4.88;4.25;;;10.50;99.90;;;;;;5092816;28;20024;-63
2022/04/06 00:08:47;;;;;;;6.97;4.78;;;10.60;99.90;;;;;;5093311;28;20127;-64
2022/04/06 00:11:12;;;;;;;6.43;4.75;;;10.50;99.90;;;;;;5091814;28;20055;-64
2022/04/06 00:13:38;;;;;;;6.70;5.38;;;10.60;99.90;;;;;;5093407;28;20020;-64
2022/04/06 00:16:04;;;;;;;5.35;4.55;;;10.60;99.90;;;;;;5092708;28;20024;-63
2022/04/06 00:18:29;;;;;;;7.60;4.63;;;10.50;99.90;;;;;;5092360;28;20376;-65
2022/04/06 00:20:55;;;;;;;5.10;4.50;;;10.50;99.90;;;;;;5093332;28;20022;-62
2022/04/06 00:23:20;;;;;;;5.10;4.53;;;10.50;99.90;;;;;;5093000;28;20450;-65
2022/04/06 00:25:46;;;;;;;4.97;4.28;;;10.60;99.90;;;;;;5093234;28;20035;-63
2022/04/06 00:28:12;;;;;;;4.90;4.03;;;10.50;99.90;;;;;;5092410;28;20385;-64
2022/04/06 00:30:37;;;;;;;7.32;5.60;;;10.50;99.90;;;;;;5093136;28;20111;-63
2022/04/06 00:33:03;;;;;;;4.85;4.28;;;10.50;99.90;;;;;;5091444;28;20028;-64
2022/04/06 00:35:29;;;;;;;5.40;4.57;;;10.50;99.90;;;;;;5092804;28;20462;-64
2022/04/06 00:38:00;;;;;;;6.75;5.15;;;10.50;99.90;;;;;;5093088;28;20028;-67
2022/04/06 00:40:26;;;;;;;6.35;5.18;;;10.60;99.90;;;;;;5091991;28;20465;-63
2022/04/06 00:42:53;;;;;;;6.40;5.05;;;10.50;99.90;;;;;;5092797;28;20032;-64
2022/04/06 00:45:22;;;;;;;5.93;4.72;;;10.60;99.90;;;;;;5090602;28;20481;-64
2022/04/06 00:47:48;;;;;;;6.82;5.40;;;10.50;99.90;;;;;;5093041;28;20024;-63
2022/04/06 00:50:14;;;;;;;6.75;5.35;;;10.50;99.90;;;;;;5092313;28;20374;-64
2022/04/06 00:52:40;;;;;;;7.88;5.35;;;10.50;99.90;;;;;;5093684;28;20038;-63
2022/04/06 00:55:07;;;;;;;7.57;6.00;;;10.50;99.90;;;;;;5091532;28;20036;-63
2022/04/06 00:57:33;;;;;;;10.95;5.93;;;10.50;99.90;;;;;;5092885;28;20445;-66
2022/04/06 00:59:59;;;;;;;8.35;5.63;;;10.60;99.90;;;;;;5093188;28;20063;-63
2022/04/06 01:02:26;;;;;;;6.80;5.78;;;10.50;99.90;;;;;;5091918;28;20490;-62
2022/04/06 01:04:51;;;;;;;7.03;5.57;;;10.60;99.90;;;;;;5091220;28;20032;-63
2022/04/06 01:07:22;;;;;;;8.05;6.10;;;10.50;99.90;;;;;;5092052;28;20032;-64
2022/04/06 01:09:48;;;;;;;10.23;6.77;;;10.50;99.90;;;;;;5092593;28;20035;-64
2022/04/06 01:12:14;;;;;;;8.35;6.25;;;10.50;99.90;;;;;;5091645;28;20024;-63
2022/04/06 01:14:40;;;;;;;8.10;6.30;;;10.40;99.90;;;;;;5091134;28;20031;-63
2022/04/06 01:17:07;;;;;;;9.68;7.43;;;10.40;99.90;;;;;;5090762;28;20032;-62
2022/04/06 01:19:42;;;;;;;8.45;5.88;;;10.40;99.90;;;;;;5093178;28;20063;-65
2022/04/06 01:22:13;;;;;;;7.95;6.22;;;10.30;99.90;;;;;;5096210;28;20024;-65
2022/04/06 01:24:40;;;;;;;8.50;6.35;;;10.40;99.90;;;;;;5096915;28;20089;-64
2022/04/06 01:27:06;;;;;;;7.93;5.95;;;10.40;99.90;;;;;;5095633;28;20040;-64
2022/04/06 01:29:32;;;;;;;8.40;6.78;;;10.40;99.90;;;;;;5096163;28;20050;-64
2022/04/06 01:32:15;;;;;;;9.65;6.45;;;10.30;99.90;;;;;;5096511;28;20032;-63
2022/04/06 01:34:41;;;;;;;8.60;6.65;;;10.30;99.90;;;;;;5096261;28;20495;-64
2022/04/06 01:37:08;;;;;;;9.52;6.70;;;10.40;99.90;;;;;;5094136;28;20397;-63
2022/04/06 01:39:35;;;;;;;8.80;6.68;;;10.40;99.90;;;;;;5096036;28;20021;-62
2022/04/06 01:42:04;;;;;;;10.23;7.82;;;10.40;99.90;;;;;;5095906;28;20074;-64
2022/04/06 01:44:31;;;;;;;8.98;5.90;;;10.40;99.90;;;;;;5094527;28;20048;-64
2022/04/06 01:46:58;;;;;;;14.95;9.20;;;10.40;99.90;;;;;;5101379;28;20035;-63
2022/04/06 01:52:13;;;;;;;10.15;7.38;;;10.40;99.90;;;;;;5075171;28;20047;-64
2022/04/06 01:54:42;;;;;;;7.57;6.18;;;10.50;99.90;;;;;;5074609;28;20483;-63
2022/04/06 01:57:08;;;;;;;9.75;6.90;;;10.40;99.90;;;;;;5075131;28;20478;-66
2022/04/06 01:59:34;;;;;;;10.20;7.97;;;10.40;99.90;;;;;;5075143;28;20032;-65
2022/04/06 02:02:00;;;;;;;8.43;6.75;;;10.40;99.90;;;;;;5076582;28;20028;-67
2022/04/06 02:04:26;;;;;;;9.40;7.53;;;10.40;99.90;;;;;;5077234;28;20097;-66
2022/04/06 02:06:52;;;;;;;9.20;7.88;;;10.40;99.90;;;;;;5077090;28;20434;-63
2022/04/06 02:09:18;;;;;;;10.52;7.78;;;10.40;99.90;;;;;;5073665;28;20025;-68
2022/04/06 02:11:44;;;;;;;10.35;7.85;;;10.40;99.90;;;;;;5073698;28;20052;-66
2022/04/06 02:14:10;;;;;;;9.23;7.38;;;10.40;99.90;;;;;;5073330;28;20025;-71
2022/04/06 02:16:37;;;;;;;11.52;7.75;;;10.40;99.90;;;;;;5087220;28;20024;-65
2022/04/06 02:19:06;;;;;;;9.90;7.20;;;10.40;99.90;;;;;;5094252;28;20031;-65
2022/04/06 02:21:33;;;;;;;10.45;7.35;;;10.50;99.90;;;;;;5094472;28;20381;-65
2022/04/06 02:24:00;;;;;;;9.65;7.43;;;10.50;99.90;;;;;;5093667;28;20036;-66
2022/04/06 02:26:27;;;;;;;9.57;7.07;;;10.50;99.90;;;;;;5094926;28;20036;-65
2022/04/06 02:28:55;;;;;;;10.27;7.85;;;10.50;99.90;;;;;;5095227;28;20024;-65
2022/04/06 02:31:21;;;;;;;10.05;7.40;;;10.50;99.90;;;;;;5094643;28;20030;-65
2022/04/06 02:33:47;;;;;;;9.70;6.63;;;10.60;99.90;;;;;;5095873;28;20028;-65
2022/04/06 02:36:13;;;;;;;9.75;7.93;;;10.50;99.90;;;;;;5094799;28;20457;-66
2022/04/06 02:38:40;;;;;;;10.98;8.82;;;10.50;99.90;;;;;;5094948;28;20032;-65
2022/04/06 02:41:07;;;;;;;11.32;8.73;;;10.50;99.90;;;;;;5095743;28;20026;-66
2022/04/06 02:43:33;;;;;;;11.32;9.38;;;10.50;99.90;;;;;;5091412;28;20052;-64
2022/04/06 02:46:06;;;;;;;12.05;9.77;;;10.50;99.90;;;;;;5040827;28;20497;-67
2022/04/06 02:48:33;;;;;;;15.23;11.75;;;10.50;99.90;;;;;;5074982;28;20032;-65
2022/04/06 02:51:00;;;;;;;18.63;13.20;;;10.50;99.90;;;;;;5041230;28;20036;-66
2022/04/06 02:53:26;;;;;;;18.58;12.60;;;10.50;99.90;;;;;;5075927;28;20059;-66
2022/04/06 02:55:54;;;;;;;14.35;11.40;;;10.60;99.90;;;;;;5058720;28;20029;-67
2022/04/06 02:58:20;;;;;;;17.95;14.15;;;10.50;99.90;;;;;;5057346;28;20021;-64
2022/04/06 03:00:47;;;;;;;15.38;12.13;;;10.50;99.90;;;;;;5074891;28;20392;-63
2022/04/06 03:03:12;;;;;;;17.65;15.27;;;10.50;99.90;;;;;;5055954;28;20029;-70
2022/04/06 03:05:39;;;;;;;18.58;15.07;;;10.50;99.90;;;;;;5056417;28;20032;-63
2022/04/06 03:08:06;;;;;;;17.88;14.27;;;10.60;99.90;;;;;;5074227;28;20453;-63
2022/04/06 03:10:33;;;;;;;15.13;11.65;;;10.60;99.90;;;;;;5073658;28;20484;-65
2022/04/06 03:13:02;;;;;;;14.50;11.02;;;10.60;99.90;;;;;;5074040;28;20458;-67
2022/04/06 03:15:28;;;;;;;13.38;9.43;;;10.60;99.90;;;;;;5056373;28;20036;-68
2022/04/06 03:17:54;;;;;;;12.75;9.60;;;10.60;99.90;;;;;;5056661;28;20494;-63
2022/04/06 03:20:23;;;;;;;11.48;9.07;;;10.60;99.90;;;;;;5073926;28;20028;-65
2022/04/06 03:22:49;;;;;;;9.55;7.60;;;10.60;99.90;;;;;;5055903;28;20037;-63
2022/04/06 03:25:15;;;;;;;9.10;7.90;;;10.60;99.90;;;;;;5073057;28;20029;-69
2022/04/06 03:27:42;;;;;;;11.85;8.63;;;10.50;99.90;;;;;;5073360;28;20029;-64
2022/04/06 03:30:12;;;;;;;11.18;8.00;;;10.50;99.90;;;;;;5055645;28;20035;-62
2022/04/06 03:32:39;;;;;;;10.52;8.52;;;10.50;99.90;;;;;;5056001;28;20024;-63
2022/04/06 03:35:07;;;;;;;9.10;7.57;;;10.50;99.90;;;;;;5073521;28;20056;-67
2022/04/06 03:37:33;;;;;;;10.77;7.97;;;10.50;99.90;;;;;;5073525;28;20390;-63
2022/04/06 03:40:01;;;;;;;14.00;7.78;;;10.60;99.90;;;;;;5055414;28;20024;-63
2022/04/06 03:42:28;;;;;;;9.02;7.60;;;10.60;99.90;;;;;;5072286;28;20024;-64
2022/04/06 03:44:56;;;;;;;11.15;7.25;;;10.60;99.90;;;;;;5080222;28;20055;-65
2022/04/06 03:47:31;;;;;;;8.85;6.82;;;10.50;99.90;;;;;;5092861;28;20408;-65
2022/04/06 03:49:59;;;;;;;11.93;7.60;;;10.60;99.90;;;;;;5091947;28;20032;-63
2022/04/06 03:52:26;;;;;;;7.95;6.75;;;10.60;99.90;;;;;;5093271;28;20126;-64
2022/04/06 03:54:53;;;;;;;10.68;6.82;;;10.60;99.90;;;;;;5094158;28;20024;-63
2022/04/06 03:57:22;;;;;;;11.07;7.05;;;10.60;99.90;;;;;;5075332;28;20046;-65
2022/04/06 03:59:48;;;;;;;9.75;7.15;;;10.60;99.90;;;;;;5092333;28;20024;-64
2022/04/06 04:02:15;;;;;;;11.80;7.10;;;10.60;99.90;;;;;;5091610;28;20035;-63
2022/04/06 04:04:40;;;;;;;11.48;6.47;;;10.60;99.90;;;;;;5093260;28;20032;-64
2022/04/06 04:07:09;;;;;;;11.35;6.90;;;10.60;99.90;;;;;;5091914;28;20081;-64
2022/04/06 04:09:38;;;;;;;10.95;6.43;;;10.60;99.90;;;;;;5092721;28;20028;-64
2022/04/06 04:12:05;;;;;;;5.95;4.70;;;10.60;99.90;;;;;;5094079;28;20021;-65
2022/04/06 04:14:36;;;;;;;7.95;4.90;;;10.60;99.90;;;;;;5094465;28;20028;-64
2022/04/06 04:17:04;;;;;;;8.10;3.90;;;10.60;99.90;;;;;;5095062;28;20024;-64
2022/04/06 04:19:30;;;;;;;8.18;3.40;;;10.60;99.90;;;;;;5091212;28;20039;-65
2022/04/06 04:21:56;;;;;;;8.93;3.05;;;10.70;99.90;;;;;;5092086;28;20037;-64
2022/04/06 04:24:22;;;;;;;7.20;3.30;;;10.60;99.90;;;;;;5092985;28;20024;-64
2022/04/06 04:26:49;;;;;;;7.47;3.45;;;10.70;99.90;;;;;;5093531;28;20039;-64
2022/04/06 04:29:17;;;;;;;13.60;4.18;;;10.60;99.90;;;;;;5091439;28;20043;-65
2022/04/06 04:31:45;;;;;;;10.35;3.70;;;10.60;99.90;;;;;;5091925;28;20430;-65
2022/04/06 04:34:11;;;;;;;10.88;3.58;;;10.60;99.90;;;;;;5092924;28;20028;-66
2022/04/06 04:36:37;;;;;;;5.72;3.58;;;10.60;99.90;;;;;;5092657;28;20031;-65
2022/04/06 04:39:04;;;;;;;5.22;2.95;;;10.60;99.90;;;;;;5092876;28;20535;-63
2022/04/06 04:41:29;;;;;;;5.45;2.60;;;10.60;99.90;;;;;;5090785;28;20020;-64
2022/04/06 04:43:55;;;;;;;6.47;2.42;;;10.70;99.90;;;;;;5091609;28;20362;-65
2022/04/06 04:46:22;;;;;;;8.35;3.88;;;10.70;99.90;;;;;;5092005;28;20032;-64
2022/04/06 04:48:49;;;;;;;7.78;2.80;;;10.70;99.90;;;;;;5086930;28;20044;-66
2022/04/06 04:51:15;;;;;;;4.97;2.13;;;10.60;99.90;;;;;;5087351;28;20024;-66
2022/04/06 04:53:41;;;;;;;10.20;2.88;;;10.60;99.90;;;;;;5090056;28;20035;-64
2022/04/06 04:56:09;;;;;;;7.25;2.42;;;10.50;99.90;;;;;;5093403;28;21506;-64
2022/04/06 04:58:35;;;;;;;5.30;2.42;;;10.60;99.90;;;;;;5093185;28;20084;-71
2022/04/06 05:01:02;;;;;;;7.82;2.25;;;10.60;99.90;;;;;;5083847;28;20028;-66
2022/04/06 05:03:28;;;;;;;5.80;2.38;;;10.60;99.90;;;;;;5093772;28;20039;-66
2022/04/06 05:05:56;;;;;;;9.38;2.67;;;10.50;99.90;;;;;;5094267;28;20028;-67
2022/04/06 05:08:23;;;;;;;9.40;2.75;;;10.60;99.90;;;;;;5086259;28;20027;-68
2022/04/06 05:10:50;;;;;;;3.15;1.95;;;10.50;99.90;;;;;;5092472;28;20123;-66
2022/04/06 05:13:21;;;;;;;8.32;2.85;;;10.50;99.90;;;;;;5087456;28;20020;-67
2022/04/06 05:15:48;;;;;;;7.60;3.03;;;10.60;99.90;;;;;;5090152;28;20032;-69
2022/04/06 05:18:14;;;;;;;5.53;2.60;;;10.60;99.90;;;;;;5095396;28;20464;-64
2022/04/06 05:20:40;;;;;;;8.20;2.80;;;10.60;99.90;;;;;;5092838;28;20020;-67
2022/04/06 05:23:06;;;;;;;6.47;2.10;;;10.70;99.90;;;;;;5091996;28;20028;-64
2022/04/06 05:25:32;;;;;;;7.70;2.63;;;10.60;99.90;;;;;;5091412;28;20032;-65
2022/04/06 05:27:59;;;;;;;8.38;2.40;;;10.60;99.90;;;;;;5087088;28;20032;-63
2022/04/06 05:30:26;;;;;;;6.03;2.67;;;10.60;99.90;;;;;;5079828;28;20119;-67
2022/04/06 05:32:54;;;;;;;12.43;3.00;;;10.60;99.90;;;;;;5075671;28;20108;-63
2022/04/06 05:35:21;;;;;;;7.10;3.20;;;10.70;99.90;;;;;;5074809;28;20386;-63
2022/04/06 05:37:49;;;;;;;9.10;2.60;;;10.70;99.90;;;;;;5075184;28;20056;-65
2022/04/06 05:40:16;;;;;;;10.85;3.30;;;10.70;99.90;;;;;;5080410;28;20031;-65
2022/04/06 05:42:44;;;;;;;8.77;3.75;;;10.70;99.90;;;;;;5090033;28;20024;-65
2022/04/06 05:45:11;;;;;;;9.25;3.63;;;10.70;99.90;;;;;;5073959;28;20393;-66
2022/04/06 05:47:37;;;;;;;5.85;2.67;;;10.70;99.90;;;;;;5048917;28;20172;-64
2022/04/06 05:50:07;;;;;;;6.35;3.17;;;10.70;99.90;;;;;;5049751;28;20049;-65
2022/04/06 05:52:36;;;;;;;7.97;3.25;;;10.70;99.90;;;;;;5036322;28;20041;-67
2022/04/06 05:55:04;;;;;;;6.78;2.88;;;11.10;99.90;;;;;;5047739;28;20100;-65
2022/04/06 05:57:31;;;;;;;5.22;2.90;;;11.00;99.90;;;;;;5051259;28;20094;-65
2022/04/06 05:59:56;;;;;;;3.85;2.72;;;10.90;99.90;;;;;;5037723;28;20036;-66
2022/04/06 06:02:26;;;;;;;11.70;3.33;;;10.90;99.90;;;;;;5052766;28;20033;-66
2022/04/06 06:04:53;;;;;;;7.57;3.55;;;10.90;99.90;;;;;;5036770;28;20035;-65
2022/04/06 06:07:23;;;;;;;9.68;3.03;;;10.90;99.90;;;;;;5052901;28;20049;-68
2022/04/06 06:09:51;;;;;;;12.80;3.22;;;10.90;99.90;;;;;;5036258;28;20115;-64
2022/04/06 06:12:17;;;;;;;6.93;2.80;;;10.90;99.90;;;;;;5036825;28;20557;-66
2022/04/06 06:14:50;;;;;;;9.80;3.00;;;10.90;99.90;;;;;;5035542;28;20049;-66
2022/04/06 06:17:16;;;;;;;11.18;3.63;;;11.00;99.90;;;;;;5052589;28;20032;-65
2022/04/06 06:19:41;;;;;;;5.63;3.13;;;11.00;99.90;;;;;;5073506;28;20083;-64
2022/04/06 06:22:07;;;;;;;10.07;3.20;;;11.10;99.90;;;;;;5073901;28;20059;-67
2022/04/06 06:24:33;;;;;;;11.23;3.70;;;11.00;99.90;;;;;;5066405;28;20063;-65
2022/04/06 06:26:59;;;;;;;9.68;3.17;;;11.00;99.90;;;;;;5074821;28;20210;-65
2022/04/06 06:29:25;;;;;;;12.30;4.20;;;11.10;99.90;;;;;;5076137;28;20506;-66
2022/04/06 06:31:52;;;;;;;8.43;4.20;;;11.10;99.90;;;;;;5057152;28;20039;-67
2022/04/06 06:34:18;;;;;;;8.70;3.83;;;11.10;99.90;;;;;;5076155;28;20033;-66
2022/04/06 06:36:45;;;;;;;15.70;3.85;;;11.10;99.90;;;;;;5056342;28;20024;-68
2022/04/06 06:39:11;;;;;;;15.63;5.60;;;11.10;99.90;;;;;;5049051;28;20028;-66
2022/04/06 06:41:37;;;;;;;8.82;3.38;;;11.10;99.90;;;;;;5070429;28;20032;-65
2022/04/06 06:44:03;;;;;;;6.60;3.13;;;11.10;99.90;;;;;;5064453;28;20041;-64
2022/04/06 06:46:31;;;;;;;10.70;3.58;;;11.20;99.90;;;;;;5074905;28;20355;-68
2022/04/06 06:49:03;;;;;;;9.35;3.17;;;11.30;99.90;;;;;;5057444;28;20064;-70
2022/04/06 06:51:32;;;;;;;;;;;11.30;99.90;;;;;;5075811;28;20025;-65
2022/04/06 06:53:59;;;;;;;6.68;3.65;;;11.30;99.90;;;;;;5075371;28;20011;-65
2022/04/06 06:56:25;;;;;;;7.72;2.92;;;11.30;99.90;;;;;;5046470;28;20512;-64
2022/04/06 06:58:52;;;;;;;8.57;2.80;;;11.30;99.90;;;;;;5040792;28;20028;-66
2022/04/06 07:01:18;;;;;;;10.27;3.03;;;11.30;99.90;;;;;;5075481;28;20063;-67
2022/04/06 07:03:43;;;;;;;15.52;3.17;;;11.30;99.90;;;;;;5050486;28;20304;-64
2022/04/06 07:06:09;;;;;;;7.85;3.50;;;11.40;99.90;;;;;;5072175;28;20484;-66
2022/04/06 07:08:35;;;;;;;8.23;2.78;;;11.50;99.90;;;;;;5072866;28;20509;-66
2022/04/06 07:11:00;;;;;;;10.00;3.70;;;11.60;99.90;;;;;;5056104;28;20029;-65
2022/04/06 07:13:27;;;;;;;8.80;3.25;;;11.90;99.90;;;;;;5054586;28;20024;-67
2022/04/06 07:15:53;;;;;;;4.55;2.30;;;11.90;99.90;;;;;;5073808;28;20025;-67
2022/04/06 07:18:21;;;;;;;7.57;2.58;;;12.70;99.90;;;;;;5054796;28;20033;-66
2022/04/06 07:20:47;;;;;;;12.70;3.38;;;13.30;99.90;;;;;;5049818;28;20037;-65
2022/04/06 07:23:13;;;;;;;6.68;3.13;;;13.00;99.90;;;;;;5054975;28;20028;-65
2022/04/06 07:25:41;;;;;;;11.60;3.47;;;12.70;99.90;;;;;;5051758;28;20178;-66
2022/04/06 07:28:08;;;;;;;5.30;2.95;;;12.60;99.90;;;;;;5070516;28;20037;-66
2022/04/06 07:30:34;;;;;;;7.85;2.78;;;12.30;99.90;;;;;;5072733;28;20103;-67
2022/04/06 07:33:00;;;;;;;8.75;2.45;;;12.50;99.90;;;;;;5056077;28;20078;-65
2022/04/06 07:35:27;;;;;;;10.52;3.17;;;12.30;99.90;;;;;;5072864;28;20036;-73
2022/04/06 07:37:53;;;;;;;6.50;2.38;;;12.40;99.90;;;;;;5074205;28;20485;-65
2022/04/06 07:40:26;;;;;;;7.07;2.80;;;12.40;99.90;;;;;;5074128;28;20082;-66
2022/04/06 07:42:54;;;;;;;4.85;2.30;;;12.30;99.60;;;;;;5069339;28;20362;-66
2022/04/06 07:45:23;;;;;;;5.22;2.70;;;12.60;99.50;;;;;;5048679;28;20051;-64
2022/04/06 07:47:51;;;;;;;7.97;3.90;;;12.90;98.90;;;;;;5057594;28;20488;-65
2022/04/06 07:50:18;;;;;;;6.03;2.00;;;12.90;99.20;;;;;;5050813;28;20467;-65
2022/04/06 07:52:45;;;;;;;10.35;2.75;;;12.70;99.60;;;;;;5046370;28;20063;-63
2022/04/06 07:55:12;;;;;;;8.63;2.83;;;12.60;99.60;;;;;;5062103;28;20048;-65
2022/04/06 07:57:38;;;;;;;4.78;2.92;;;12.50;99.40;;;;;;5044089;28;20458;-64
2022/04/06 08:00:10;;;;;;;16.90;3.33;;;12.50;99.70;;;;;;5043214;28;20063;-67
2022/04/06 08:02:36;;;;;;;7.72;2.90;;;12.10;99.80;;;;;;5043761;28;20028;-63
2022/04/06 08:05:02;;;;;;;6.82;2.20;;;12.00;99.50;;;;;;5064851;28;20027;-66
2022/04/06 08:07:28;;;;;;;7.57;2.33;;;12.10;99.70;;;;;;5060537;28;20159;-68
2022/04/06 08:09:54;;;;;;;6.13;2.53;;;12.10;99.50;;;;;;5062218;28;20104;-64
2022/04/06 08:12:20;;;;;;;6.45;2.45;;;12.10;99.70;;;;;;5062175;28;20020;-66
2022/04/06 08:14:48;;;;;;;9.25;2.65;;;12.00;99.90;;;;;;5065621;28;20032;-69
2022/04/06 08:17:20;;;;;;;9.70;2.40;;;12.00;99.90;;;;;;5053428;28;20024;-64
2022/04/06 08:19:45;;;;;;;9.35;3.10;;;12.20;99.40;;;;;;5054877;28;20024;-66
2022/04/06 08:22:11;;;;;;;6.47;3.17;;;12.20;99.00;;;;;;5064466;28;20043;-65
2022/04/06 08:24:36;;;;;;;7.03;2.78;;;12.10;98.60;;;;;;5057933;28;20040;-67
2022/04/06 08:27:02;;;;;;;4.75;2.15;;;11.90;99.20;;;;;;5053218;28;20510;-65
2022/04/06 08:29:31;;;;;;;8.90;2.20;;;11.80;99.10;;;;;;5051879;28;20037;-72
2022/04/06 08:31:57;;;;;;;10.27;2.88;;;12.00;98.90;;;;;;5065651;28;20025;-68
2022/04/06 08:34:22;;;;;;;7.65;3.00;;;12.10;98.80;;;;;;5055472;28;20035;-66
2022/04/06 08:36:48;;;;;;;4.13;2.05;;;12.10;98.80;;;;;;5073504;28;20314;-65
2022/04/06 08:39:14;;;;;;;11.23;3.33;;;12.30;98.70;;;;;;5074938;28;20025;-66
2022/04/06 08:41:40;;;;;;;3.42;2.47;;;12.50;98.60;;;;;;5055268;28;20029;-65
2022/04/06 08:44:07;;;;;;;4.35;2.30;;;12.80;98.50;;;;;;5066004;28;20052;-64
2022/04/06 08:46:38;;;;;;;6.82;3.25;;;12.80;98.50;;;;;;5087938;28;20084;-69
2022/04/06 08:49:04;;;;;;;6.05;2.22;;;13.10;98.40;;;;;;5079897;28;20068;-67
2022/04/06 08:51:32;;;;;;;7.40;2.40;;;13.60;97.80;;;;;;5085959;28;20036;-70
2022/04/06 08:53:58;;;;;;;8.57;2.80;;;14.20;97.00;;;;;;5079820;28;20115;-66
2022/04/06 08:56:23;;;;;;;8.38;2.15;;;14.30;96.60;;;;;;5083346;28;20115;-65
2022/04/06 08:58:49;;;;;;;6.50;2.58;;;14.40;96.20;;;;;;5060403;28;20557;-66
2022/04/06 09:01:15;;;;;;;5.15;2.70;;;14.00;96.20;;;;;;5083527;28;20433;-64
2022/04/06 09:03:41;;;;;;;8.25;3.22;;;13.90;96.60;;;;;;5086789;28;20552;-69
2022/04/06 09:06:12;;;;;;;6.68;2.47;;;13.80;96.60;;;;;;5076023;28;20396;-64
2022/04/06 09:08:41;;;;;;;9.50;2.78;;;13.60;96.70;;;;;;5080552;28;20036;-65
2022/04/06 09:11:12;;;;;;;12.25;2.45;;;13.60;96.80;;;;;;5087246;28;20039;-66
2022/04/06 09:13:41;;;;;;;6.78;3.10;;;13.70;96.60;;;;;;5090788;28;20369;-66
2022/04/06 09:16:11;;;;;;;9.63;2.38;;;14.00;96.20;;;;;;5091445;28;20023;-67
2022/04/06 09:18:43;;;;;;;8.07;2.58;;;14.00;96.30;;;;;;5090722;28;20055;-65
2022/04/06 09:21:18;;;;;;;7.18;2.75;;;13.90;96.50;;;;;;5092080;28;20034;-66
2022/04/06 09:23:49;;;;;;;5.55;3.20;;;14.00;96.40;;;;;;5093091;28;20079;-65
2022/04/06 09:26:17;;;;;;;7.78;3.28;;;14.30;96.20;;;;;;5092269;28;20465;-65
2022/04/06 09:28:45;;;;;;;16.40;3.72;;;14.40;95.90;;;;;;5092360;28;20362;-66
2022/04/06 09:31:18;;;;;;;10.77;3.90;;;14.40;99.90;;;;;;5092845;28;20024;-67
2022/04/06 09:34:09;;;;;;;8.00;3.50;;;14.70;99.90;;;;;;5090544;28;20115;-66
2022/04/06 09:36:38;;;;;;;8.68;3.05;;;14.70;99.90;;;;;;5090717;28;20028;-65
2022/04/06 09:39:05;;;;;;;11.75;3.25;;;14.60;98.40;;;;;;5090885;28;20419;-66
2022/04/06 09:41:31;;;;;;;12.25;3.83;;;14.80;99.90;;;;;;5092125;28;20051;-66
2022/04/06 09:44:08;;;;;;;4.97;2.50;;;15.30;99.90;;;;;;5088587;28;20418;-64
2022/04/06 09:49:24;;;;;;;5.72;2.55;;;14.70;95.00;;;;;;5060672;28;20036;-64
2022/04/06 09:51:51;;;;;;;5.13;2.00;;;15.00;93.20;;;;;;5073138;28;20025;-65
2022/04/06 09:54:20;;;;;;;6.40;3.05;;;14.50;93.00;;;;;;5069109;28;20356;-65
2022/04/06 09:56:46;;;;;;;6.90;2.40;;;14.20;93.60;;;;;;5071650;28;20527;-65
2022/04/06 09:59:13;;;;;;;10.60;2.60;;;14.30;93.40;;;;;;5057240;28;20025;-64
2022/04/06 10:01:47;;;;;;;6.90;2.10;;;14.60;95.50;;;;;;5056206;28;20097;-64
2022/04/06 10:04:13;;;;;;;3.70;2.25;;;14.70;95.70;;;;;;5040355;28;20051;-64
2022/04/06 10:06:41;;;;;;;4.30;2.33;;;14.40;93.40;;;;;;5074034;28;20024;-66
2022/04/06 10:09:09;;;;;;;5.78;2.60;;;14.40;93.30;;;;;;5075158;28;20040;-65
2022/04/06 10:11:39;;;;;;;7.32;2.45;;;14.10;93.80;;;;;;5072774;28;20021;-67
2022/04/06 10:14:08;;;;;;;7.00;2.85;;;14.00;94.00;;;;;;5054465;28;20028;-70
2022/04/06 10:16:36;;;;;;;4.93;2.25;;;13.80;94.30;;;;;;5036313;28;20463;-63
2022/04/06 10:19:03;;;;;;;4.13;2.03;;;13.80;94.60;;;;;;5055027;28;20435;-66
2022/04/06 10:21:55;;;;;;;6.82;3.45;;;13.90;94.40;;;;;;5036738;28;20105;-65
2022/04/06 10:24:36;;;;;;;7.00;3.20;;;13.90;94.70;;;;;;5055325;28;20025;-66
2022/04/06 10:27:24;;;;;;;8.15;3.25;;;13.70;95.10;;;;;;5037692;28;20122;-64
2022/04/06 10:30:18;;;;;;;5.70;2.47;;;13.70;95.50;;;;;;5037546;28;20037;-65
2022/04/06 10:32:45;;;;;;;10.32;2.90;;;13.80;95.80;;;;;;5054609;28;20021;-65
2022/04/06 10:35:27;;;;;;;7.32;3.90;;;13.80;95.70;;;;;;5055089;28;20032;-70
2022/04/06 10:38:14;;;;;;;6.82;2.63;;;13.80;95.80;;;;;;5037197;28;20061;-64
2022/04/06 10:41:06;;;;;;;8.95;3.65;;;13.80;96.10;;;;;;5055449;28;20033;-67
2022/04/06 10:43:39;;;;;;;14.18;3.83;;;13.80;96.20;;;;;;5055433;28;20028;-70
2022/04/06 10:46:09;;;;;;;8.82;3.13;;;13.80;96.30;;;;;;5055468;28;20048;-68
2022/04/06 10:48:55;;;;;;;7.50;2.80;;;13.80;96.50;;;;;;5055186;28;20020;-66
2022/04/06 10:51:33;;;;;;;9.52;5.07;;;13.70;96.70;;;;;;5037115;28;20029;-64
2022/04/06 10:54:00;;;;;;;13.25;3.83;;;13.70;97.10;;;;;;5053456;28;20036;-65
2022/04/06 10:56:46;;;;;;;10.75;4.47;;;13.90;97.10;;;;;;5036716;28;20029;-67
2022/04/06 10:59:16;;;;;;;9.27;3.47;;;14.00;96.90;;;;;;5055052;28;20063;-64
2022/04/06 11:01:45;;;;;;;7.10;3.45;;;14.00;96.70;;;;;;5035816;28;20025;-67
2022/04/06 11:04:20;;;;;;;14.82;4.88;;;14.20;96.50;;;;;;5036193;28;20394;-65
2022/04/06 11:07:03;;;;;;;9.07;3.30;;;14.20;96.60;;;;;;5053761;28;20021;-65
2022/04/06 11:12:28;;;;;;;12.20;4.50;;;14.70;96.40;;;;;;5053924;28;20119;-65
2022/04/06 11:14:59;;;;;;;10.38;4.82;;;14.60;95.70;;;;;;5053553;28;20031;-65
2022/04/06 11:17:34;;;;;;;;;;;14.70;95.90;;;;;;5036400;28;20501;-65
2022/04/06 11:20:09;;;;;;;11.10;3.72;;;15.00;95.80;;;;;;5035474;28;19905;-66
2022/04/06 11:22:54;;;;;;;10.55;4.70;;;15.80;94.80;;;;;;5035293;28;20033;-65
2022/04/06 11:25:27;;;;;;;9.95;3.53;;;15.90;94.10;;;;;;5053458;28;20566;-64
2022/04/06 11:27:55;;;;;;;14.43;3.90;;;16.00;93.80;;;;;;5053093;28;20029;-64
2022/04/06 11:30:26;;;;;;;11.13;3.65;;;15.90;93.50;;;;;;5052839;28;20351;-65
2022/04/06 11:32:54;;;;;;;5.43;3.30;;;16.30;93.10;;;;;;5051208;28;20090;-64
2022/04/06 11:35:20;;;;;;;9.25;3.85;;;16.50;93.30;;;;;;5033228;28;20028;-63
2022/04/06 11:37:48;;;;;;;8.38;4.03;;;16.90;92.60;;;;;;5050762;28;20501;-64
2022/04/06 11:40:18;;;;;;;11.68;3.92;;;17.00;91.90;;;;;;5052946;28;20470;-64
2022/04/06 11:42:49;;;;;;;11.07;3.87;;;16.90;92.40;;;;;;5051713;28;20095;-65
2022/04/06 11:45:31;;;;;;;6.80;3.43;;;17.20;91.70;;;;;;5051977;28;20052;-65
2022/04/06 11:47:58;;;;;;;12.75;3.15;;;16.70;91.50;;;;;;5064135;28;20068;-67
2022/04/06 11:50:51;;;;;;;13.90;4.20;;;16.70;91.40;;;;;;5055178;28;20076;-64
2022/04/06 11:53:20;;;;;;;9.07;3.10;;;16.80;91.10;;;;;;5067699;28;20086;-64
2022/04/06 11:55:53;;;;;;;9.45;2.72;;;17.10;90.10;;;;;;5072211;28;20021;-65
2022/04/06 11:58:29;;;;;;;8.65;3.45;;;17.20;89.20;;;;;;5070199;28;20024;-65
2022/04/06 12:01:10;;;;;;;10.23;3.25;;;16.80;88.80;;;;;;5053771;28;20025;-65
2022/04/06 12:03:41;;;;;;;4.95;3.03;;;16.80;89.10;;;;;;5052132;28;20025;-64
2022/04/06 12:06:11;;;;;;;7.73;2.90;;;16.50;89.80;;;;;;5033950;28;20036;-64
2022/04/06 12:08:41;;;;;;;9.07;3.17;;;16.30;90.30;;;;;;5052178;28;20111;-65
2022/04/06 12:11:07;;;;;;;9.30;3.33;;;15.90;91.10;;;;;;5033971;28;20033;-64
2022/04/06 12:13:41;;;;;;;9.45;3.33;;;15.50;91.30;;;;;;5034415;28;20032;-64
2022/04/06 12:16:07;;;;;;;12.82;3.42;;;15.60;91.40;;;;;;5052258;28;20025;-63
2022/04/06 12:18:33;;;;;;;5.55;3.00;;;15.20;91.90;;;;;;5034639;28;20087;-65
2022/04/06 12:21:00;;;;;;;6.72;2.75;;;15.50;91.70;;;;;;5033684;28;20378;-65
2022/04/06 12:23:27;;;;;;;4.72;2.30;;;16.10;90.80;;;;;;5052232;28;20033;-66
2022/04/06 12:25:56;;;;;;;3.80;2.50;;;16.40;88.50;;;;;;5051606;28;20052;-63
2022/04/06 12:28:27;;;;;;;4.05;2.20;;;16.30;88.70;;;;;;5052526;28;20409;-64
2022/04/06 12:31:06;;;;;;;9.32;2.67;;;15.90;89.90;;;;;;5033686;28;20029;-65
2022/04/06 12:33:33;;;;;;;5.57;2.53;;;16.10;89.90;;;;;;5034612;28;20036;-65
2022/04/06 12:36:19;;;;;;;5.97;2.38;;;15.80;90.30;;;;;;5033163;28;20091;-64
2022/04/06 12:39:06;;;;;;;7.38;1.60;;;16.60;87.70;;;;;;5050837;28;20095;-71
2022/04/06 12:41:34;;;;;;;3.10;1.80;;;17.00;86.60;;;;;;5033931;28;20017;-66
2022/04/06 12:44:04;;;;;;;5.65;1.52;;;17.10;83.50;;;;;;5051514;28;20041;-66
2022/04/06 12:46:44;;;;;;;6.85;1.90;;;17.30;82.60;;;;;;5051031;28;20047;-64
2022/04/06 12:49:27;;;;;;;5.40;1.90;;;17.80;82.00;;;;;;5049596;28;20071;-64
2022/04/06 12:52:05;;;;;;;4.72;1.33;;;17.40;80.80;;;;;;5052167;28;20539;-69
2022/04/06 12:54:35;;;;;;;4.43;1.40;;;17.20;80.30;;;;;;5053436;28;20035;-64
2022/04/06 12:57:04;;;;;;;2.88;1.55;;;17.00;79.30;;;;;;5065997;28;20033;-65
2022/04/06 12:59:38;;;;;;;4.97;1.17;;;17.10;84.20;;;;;;5052811;28;20119;-64